createdAt,value
2022-09-04T00:02:15.040Z,14.20
2022-09-04T00:04:52.957Z,17.10
2022-09-04T00:08:10.316Z,15.80
2022-09-04T00:11:05.477Z,16.10
2022-09-04T00:14:01.457Z,20.30
2022-09-04T00:16:43.364Z,18.10
2022-09-04T00:19:39.184Z,15.90
2022-09-04T00:22:16.554Z,14.60
2022-09-04T00:24:45.998Z,16.60
2022-09-04T00:27:25.188Z,14.30
2022-09-04T00:29:57.894Z,17.20
2022-09-04T00:32:49.975Z,14.60
2022-09-04T00:35:20.783Z,15.60
2022-09-04T00:37:56.894Z,12.40
2022-09-04T00:40:37.579Z,11.30
2022-09-04T00:43:10.829Z,13.80
2022-09-04T00:46:00.755Z,14.20
2022-09-04T00:48:49.717Z,13.30
2022-09-04T00:51:20.959Z,12.10
2022-09-04T00:54:12.055Z,10.80
2022-09-04T00:57:03.722Z,12.40
2022-09-04T00:59:55.497Z,12.90
2022-09-04T01:02:40.692Z,10.90
2022-09-04T01:05:37.048Z,10.90
2022-09-04T01:08:35.232Z,13.00
2022-09-04T01:11:44.438Z,9.60
2022-09-04T01:14:41.532Z,10.80
2022-09-04T01:17:14.860Z,10.30
2022-09-04T01:20:20.252Z,11.00
2022-09-04T01:22:54.057Z,10.50
2022-09-04T01:25:51.749Z,10.30
2022-09-04T01:28:54.074Z,12.20
2022-09-04T01:31:32.646Z,12.60
2022-09-04T01:34:06.388Z,9.60
2022-09-04T01:37:12.743Z,10.10
2022-09-04T01:39:39.979Z,12.70
2022-09-04T01:42:15.089Z,11.10
2022-09-04T01:44:43.913Z,12.00
2022-09-04T01:47:29.330Z,10.40
2022-09-04T01:49:59.628Z,12.20
2022-09-04T01:52:48.095Z,12.50
2022-09-04T01:55:20.126Z,10.70
2022-09-04T01:58:05.715Z,10.40
2022-09-04T02:00:38.006Z,14.80
2022-09-04T02:03:11.340Z,14.30
2022-09-04T02:05:57.033Z,9.90
2022-09-04T02:08:43.562Z,10.60
2022-09-04T02:11:15.239Z,9.80
2022-09-04T02:13:45.599Z,10.80
2022-09-04T02:16:20.928Z,12.20
2022-09-04T02:19:01.954Z,11.50
2022-09-04T02:21:43.846Z,12.50
2022-09-04T02:24:25.671Z,13.10
2022-09-04T02:27:13.587Z,11.30
2022-09-04T02:30:08.241Z,8.70
2022-09-04T02:33:00.137Z,10.60
2022-09-04T02:35:30.389Z,9.20
2022-09-04T02:38:15.828Z,9.60
2022-09-04T02:40:56.691Z,8.70
2022-09-04T02:43:58.345Z,10.20
2022-09-04T02:49:13.553Z,9.80
2022-09-04T02:51:50.227Z,10.60
2022-09-04T02:54:39.271Z,11.40
2022-09-04T02:57:27.578Z,11.50
2022-09-04T03:00:21.079Z,13.60
2022-09-04T03:03:13.760Z,10.90
2022-09-04T03:05:45.075Z,11.20
2022-09-04T03:08:14.981Z,12.10
2022-09-04T03:11:07.327Z,9.60
2022-09-04T03:13:50.190Z,12.10
2022-09-04T03:16:28.794Z,10.50
2022-09-04T03:19:16.576Z,10.20
2022-09-04T03:22:04.180Z,8.80
2022-09-04T03:25:24.075Z,10.80
2022-09-04T03:27:51.261Z,9.60
2022-09-04T03:30:18.783Z,9.10
2022-09-04T03:32:52.190Z,9.80
2022-09-04T03:35:25.888Z,9.30
2022-09-04T03:38:05.184Z,10.10
2022-09-04T03:41:06.729Z,8.40
2022-09-04T03:44:03.655Z,9.10
2022-09-04T03:46:56.349Z,10.90
2022-09-04T03:49:54.566Z,10.80
2022-09-04T03:52:52.240Z,9.30
2022-09-04T03:55:25.239Z,11.40
2022-09-04T03:58:29.764Z,11.40
2022-09-04T04:01:24.842Z,10.10
2022-09-04T04:04:04.662Z,11.60
2022-09-04T04:06:38.510Z,12.80
2022-09-04T04:09:24.186Z,12.00
2022-09-04T04:12:13.323Z,7.70
2022-09-04T04:14:51.461Z,7.80
2022-09-04T04:17:24.846Z,10.00
2022-09-04T04:20:05.432Z,10.00
2022-09-04T04:23:04.851Z,10.90
2022-09-04T04:25:53.575Z,10.20
2022-09-04T04:28:32.834Z,10.40
2022-09-04T04:31:23.435Z,13.90
2022-09-04T04:34:19.326Z,12.10
2022-09-04T04:36:59.889Z,10.00
2022-09-04T04:40:02.082Z,9.10
2022-09-04T04:42:32.284Z,11.40
2022-09-04T04:45:24.303Z,14.70
2022-09-04T04:47:57.360Z,14.20
2022-09-04T04:50:47.855Z,14.30
2022-09-04T04:53:18.844Z,14.40
2022-09-04T04:56:31.633Z,12.90
2022-09-04T04:59:20.596Z,10.50
2022-09-04T05:01:59.829Z,10.20
2022-09-04T05:04:50.967Z,11.40
2022-09-04T05:07:27.923Z,10.10
2022-09-04T05:09:59.905Z,12.10
2022-09-04T05:12:46.387Z,11.80
2022-09-04T05:15:22.384Z,11.70
2022-09-04T05:18:04.658Z,11.30
2022-09-04T05:20:52.320Z,8.70
2022-09-04T05:23:29.157Z,9.90
2022-09-04T05:26:18.118Z,9.20
2022-09-04T05:28:48.477Z,10.00
2022-09-04T05:31:48.981Z,9.40
2022-09-04T05:34:22.041Z,7.40
2022-09-04T05:37:00.711Z,9.60
2022-09-04T05:39:30.648Z,9.00
2022-09-04T05:42:10.260Z,8.10
2022-09-04T05:45:05.595Z,9.60
2022-09-04T05:47:57.979Z,7.30
2022-09-04T05:50:31.932Z,7.00
2022-09-04T05:53:33.066Z,8.20
2022-09-04T05:56:38.399Z,6.20
2022-09-04T05:59:09.437Z,7.30
2022-09-04T06:01:58.280Z,6.30
2022-09-04T06:04:35.755Z,7.90
2022-09-04T06:07:12.758Z,6.30
2022-09-04T06:09:59.788Z,6.90
2022-09-04T06:12:42.549Z,8.30
2022-09-04T06:15:21.989Z,7.10
2022-09-04T06:18:01.262Z,6.80
2022-09-04T06:20:46.874Z,7.30
2022-09-04T06:23:57.934Z,7.40
2022-09-04T06:26:29.848Z,7.20
2022-09-04T06:29:05.815Z,6.20
2022-09-04T06:31:39.966Z,7.10
2022-09-04T06:34:22.311Z,8.10
2022-09-04T06:36:55.542Z,6.50
2022-09-04T06:39:44.181Z,6.70
2022-09-04T06:42:21.794Z,6.30
2022-09-04T06:45:01.572Z,5.00
2022-09-04T06:47:57.956Z,4.90
2022-09-04T06:50:59.823Z,3.70
2022-09-04T06:53:38.668Z,5.50
2022-09-04T06:56:23.944Z,4.10
2022-09-04T06:59:09.311Z,4.00
2022-09-04T07:01:50.908Z,5.40
2022-09-04T07:04:40.995Z,4.50
2022-09-04T07:07:42.156Z,4.50
2022-09-04T07:10:16.812Z,6.80
2022-09-04T07:12:57.525Z,4.50
2022-09-04T07:15:37.368Z,9.50
2022-09-04T07:18:28.328Z,5.90
2022-09-04T07:21:05.633Z,5.20
2022-09-04T07:23:48.355Z,6.10
2022-09-04T07:26:45.791Z,5.90
2022-09-04T07:30:02.387Z,4.50
2022-09-04T07:32:35.548Z,4.50
2022-09-04T07:35:27.458Z,4.30
2022-09-04T07:38:02.955Z,3.70
2022-09-04T07:40:39.058Z,4.50
2022-09-04T07:43:54.640Z,4.60
2022-09-04T07:46:53.402Z,3.50
2022-09-04T07:49:33.205Z,3.70
2022-09-04T07:52:04.013Z,4.10
2022-09-04T07:55:00.970Z,3.20
2022-09-04T07:57:37.613Z,4.00
2022-09-04T08:00:10.236Z,5.40
2022-09-04T08:03:17.927Z,2.00
2022-09-04T08:06:07.613Z,3.20
2022-09-04T08:08:44.859Z,3.30
2022-09-04T08:11:46.240Z,4.20
2022-09-04T08:14:26.835Z,3.40
2022-09-04T08:17:33.255Z,2.90
2022-09-04T08:20:11.241Z,2.50
2022-09-04T08:23:20.558Z,2.50
2022-09-04T08:26:22.819Z,3.80
2022-09-04T08:29:32.319Z,3.40
2022-09-04T08:32:12.101Z,3.30
2022-09-04T08:34:42.496Z,3.30
2022-09-04T08:37:36.952Z,2.40
2022-09-04T08:40:38.557Z,4.50
2022-09-04T08:43:22.777Z,4.50
2022-09-04T08:46:13.505Z,5.70
2022-09-04T08:49:11.787Z,3.80
2022-09-04T08:51:57.261Z,2.50
2022-09-04T08:54:43.835Z,1.50
2022-09-04T08:57:30.160Z,2.80
2022-09-04T09:00:14.230Z,1.70
2022-09-04T09:03:12.306Z,2.50
2022-09-04T09:05:58.552Z,3.00
2022-09-04T09:09:00.112Z,2.10
2022-09-04T09:11:43.678Z,2.20
2022-09-04T09:14:46.654Z,1.80
2022-09-04T09:17:39.906Z,3.00
2022-09-04T09:20:29.898Z,2.60
2022-09-04T09:23:25.482Z,2.90
2022-09-04T09:25:55.844Z,2.60
2022-09-04T09:28:25.568Z,2.50
2022-09-04T09:31:11.247Z,3.30
2022-09-04T09:33:57.310Z,2.60
2022-09-04T09:37:02.645Z,2.40
2022-09-04T09:39:54.939Z,2.10
2022-09-04T09:42:24.859Z,1.80
2022-09-04T09:45:00.892Z,2.20
2022-09-04T09:47:47.288Z,2.40
2022-09-04T09:50:27.932Z,1.60
2022-09-04T09:53:24.408Z,1.40
2022-09-04T09:55:51.717Z,3.00
2022-09-04T09:58:46.462Z,2.00
2022-09-04T10:01:25.700Z,2.40
2022-09-04T10:04:21.336Z,2.20
2022-09-04T10:07:10.736Z,1.90
2022-09-04T10:10:08.879Z,4.30
2022-09-04T10:13:13.896Z,2.10
2022-09-04T10:16:03.107Z,1.50
2022-09-04T10:18:52.883Z,2.10
2022-09-04T10:21:59.264Z,1.20
2022-09-04T10:24:53.643Z,1.20
2022-09-04T10:27:58.766Z,3.30
2022-09-04T10:30:44.764Z,1.90
2022-09-04T10:33:31.408Z,2.10
2022-09-04T10:36:35.295Z,4.20
2022-09-04T10:39:38.633Z,1.80
2022-09-04T10:42:10.462Z,2.40
2022-09-04T10:45:03.569Z,2.70
2022-09-04T10:47:56.755Z,2.30
2022-09-04T10:51:02.072Z,1.90
2022-09-04T10:53:53.222Z,3.50
2022-09-04T10:56:29.071Z,2.20
2022-09-04T10:59:23.343Z,2.50
2022-09-04T11:02:31.921Z,1.80
2022-09-04T11:05:28.633Z,1.20
2022-09-04T11:08:20.448Z,4.50
2022-09-04T11:11:15.436Z,1.80
2022-09-04T11:14:21.267Z,2.20
2022-09-04T11:16:57.560Z,1.00
2022-09-04T11:19:52.460Z,2.40
2022-09-04T11:22:40.950Z,3.70
2022-09-04T11:25:28.183Z,2.20
2022-09-04T11:28:30.880Z,1.40
2022-09-04T11:31:36.657Z,3.10
2022-09-04T11:34:33.318Z,3.10
2022-09-04T11:37:26.671Z,1.30
2022-09-04T11:39:53.951Z,1.80
2022-09-04T11:42:41.443Z,2.50
2022-09-04T11:45:16.866Z,1.60
2022-09-04T11:47:48.006Z,2.60
2022-09-04T11:50:16.551Z,1.80
2022-09-04T11:53:21.935Z,2.20
2022-09-04T11:56:01.230Z,1.90
2022-09-04T11:58:36.738Z,3.00
2022-09-04T12:01:28.216Z,1.70
2022-09-04T12:04:23.445Z,1.90
2022-09-04T12:07:09.048Z,1.30
2022-09-04T12:09:51.624Z,1.10
2022-09-04T12:12:22.839Z,3.30
2022-09-04T12:15:07.362Z,2.40
2022-09-04T12:18:08.531Z,4.00
2022-09-04T12:20:51.095Z,2.30
2022-09-04T12:23:24.320Z,4.00
2022-09-04T12:26:24.408Z,3.70
2022-09-04T12:29:25.884Z,2.40
2022-09-04T12:32:31.518Z,1.70
2022-09-04T12:35:08.880Z,2.40
2022-09-04T12:38:18.003Z,3.10
2022-09-04T12:40:48.701Z,2.50
2022-09-04T12:43:20.348Z,1.80
2022-09-04T12:46:04.242Z,3.20
2022-09-04T12:48:33.562Z,3.00
2022-09-04T12:51:26.811Z,2.40
2022-09-04T12:54:38.820Z,3.10
2022-09-04T12:57:20.908Z,3.60
2022-09-04T13:00:12.246Z,1.70
2022-09-04T13:03:13.470Z,1.70
2022-09-04T13:05:53.594Z,2.80
2022-09-04T13:08:36.186Z,4.40
2022-09-04T13:11:31.046Z,2.70
2022-09-04T13:14:28.619Z,2.70
2022-09-04T13:17:42.279Z,2.60
2022-09-04T13:20:12.980Z,3.00
2022-09-04T13:23:07.998Z,3.00
2022-09-04T13:26:04.278Z,3.30
2022-09-04T13:28:46.186Z,2.70
2022-09-04T13:31:19.386Z,3.80
2022-09-04T13:34:13.573Z,3.20
2022-09-04T13:36:56.537Z,2.90
2022-09-04T13:39:32.773Z,2.60
2022-09-04T13:42:28.484Z,3.30
2022-09-04T13:45:05.902Z,6.10
2022-09-04T13:47:56.349Z,2.90
2022-09-04T13:50:34.627Z,5.10
2022-09-04T13:53:40.490Z,6.60
2022-09-04T13:56:13.509Z,6.60
2022-09-04T13:58:46.880Z,7.60
2022-09-04T14:01:17.154Z,11.60
2022-09-04T14:03:50.193Z,7.80
2022-09-04T14:06:19.462Z,8.60
2022-09-04T14:08:59.636Z,8.70
2022-09-04T14:11:51.078Z,8.30
2022-09-04T14:14:45.740Z,6.70
2022-09-04T14:17:12.977Z,5.10
2022-09-04T14:20:10.547Z,4.10
2022-09-04T14:22:52.082Z,3.10
2022-09-04T14:25:30.668Z,4.10
2022-09-04T14:28:15.431Z,5.00
2022-09-04T14:31:18.061Z,4.60
2022-09-04T14:34:13.896Z,7.40
2022-09-04T14:36:54.573Z,4.80
2022-09-04T14:39:43.787Z,4.40
2022-09-04T14:42:16.253Z,5.20
2022-09-04T14:44:58.628Z,4.20
2022-09-04T14:47:26.172Z,5.50
2022-09-04T14:49:55.775Z,9.00
2022-09-04T14:52:27.392Z,5.40
2022-09-04T14:54:57.766Z,10.50
2022-09-04T14:57:31.129Z,9.00
2022-09-04T15:00:06.901Z,8.20
2022-09-04T15:02:36.496Z,10.20
2022-09-04T15:05:17.235Z,13.30
2022-09-04T15:07:44.688Z,7.30
2022-09-04T15:10:50.771Z,12.30
2022-09-04T15:13:27.427Z,9.50
2022-09-04T15:16:16.119Z,9.30
2022-09-04T15:18:51.902Z,5.60
2022-09-04T15:21:38.742Z,8.10
2022-09-04T15:24:17.163Z,10.30
2022-09-04T15:26:46.864Z,6.30
2022-09-04T15:30:09.021Z,8.30
2022-09-04T15:32:39.942Z,9.50
2022-09-04T15:35:17.515Z,5.70
2022-09-04T15:37:48.266Z,6.40
2022-09-04T15:41:05.797Z,4.60
2022-09-04T15:44:02.051Z,3.80
2022-09-04T15:47:07.787Z,4.50
2022-09-04T15:49:59.123Z,9.60
2022-09-04T15:52:45.342Z,7.00
2022-09-04T15:55:18.514Z,7.20
2022-09-04T15:57:51.142Z,10.20
2022-09-04T16:00:22.962Z,8.90
2022-09-04T16:03:12.258Z,9.50
2022-09-04T16:05:53.386Z,12.90
2022-09-04T16:08:23.855Z,11.00
2022-09-04T16:11:09.349Z,13.20
2022-09-04T16:13:52.784Z,14.20
2022-09-04T16:16:45.438Z,14.80
2022-09-04T16:19:44.559Z,12.80
2022-09-04T16:22:26.474Z,15.40
2022-09-04T16:25:23.554Z,17.30
2022-09-04T16:27:54.447Z,14.30
2022-09-04T16:30:58.600Z,19.50
2022-09-04T16:33:33.272Z,21.90
2022-09-04T16:36:11.518Z,24.20
2022-09-04T16:39:20.823Z,24.70
2022-09-04T16:42:10.594Z,18.10
2022-09-04T16:44:45.511Z,20.10
2022-09-04T16:47:21.444Z,16.90
2022-09-04T16:50:27.379Z,18.80
2022-09-04T16:53:13.778Z,15.70
2022-09-04T16:55:50.124Z,17.30
2022-09-04T16:58:21.467Z,21.40
2022-09-04T17:01:13.708Z,40.00
2022-09-04T17:04:12.439Z,30.50
2022-09-04T17:07:19.899Z,22.30
2022-09-04T17:10:30.623Z,27.40
2022-09-04T17:13:12.772Z,25.60
2022-09-04T17:15:58.089Z,15.40
2022-09-04T17:18:27.723Z,16.90
2022-09-04T17:22:49.979Z,21.10
2022-09-04T17:29:03.302Z,19.70
2022-09-04T17:29:10.934Z,18.80
2022-09-04T17:30:07.552Z,14.90
2022-09-04T17:38:57.668Z,18.30
2022-09-04T17:40:39.726Z,16.90
2022-09-04T17:40:46.713Z,16.30
2022-09-04T17:42:09.541Z,16.50
2022-09-04T17:44:57.085Z,17.30
2022-09-04T17:47:43.159Z,20.10
2022-09-04T17:50:22.923Z,17.20
2022-09-04T17:53:14.538Z,17.70
2022-09-04T17:55:58.861Z,22.90
2022-09-04T17:58:57.452Z,59.00
2022-09-04T18:01:40.841Z,34.30
2022-09-04T18:04:37.562Z,52.70
2022-09-04T18:07:57.587Z,33.40
2022-09-04T18:10:32.523Z,29.40
2022-09-04T18:13:38.030Z,18.90
2022-09-04T18:16:27.080Z,21.90
2022-09-04T18:19:08.407Z,23.30
2022-09-04T18:21:45.719Z,22.20
2022-09-04T18:24:16.345Z,20.80
2022-09-04T18:26:59.210Z,22.90
2022-09-04T18:33:12.317Z,24.50
2022-09-04T18:37:11.131Z,27.80
2022-09-04T18:37:23.986Z,28.00
2022-09-04T18:38:37.355Z,35.40
2022-09-04T18:46:15.124Z,30.20
2022-09-04T18:50:25.015Z,28.10
2022-09-04T18:50:30.655Z,27.80
2022-09-04T18:50:34.629Z,26.40
2022-09-04T18:53:01.363Z,24.80
2022-09-04T18:58:24.026Z,26.60
2022-09-04T19:01:04.081Z,28.40
2022-09-04T19:03:47.875Z,25.60
2022-09-04T19:06:29.032Z,28.10
2022-09-04T19:11:32.819Z,27.70
2022-09-04T19:14:10.529Z,27.30
2022-09-04T19:16:40.768Z,25.90
2022-09-04T19:19:17.481Z,25.80
2022-09-04T19:21:57.517Z,23.00
2022-09-04T19:24:47.107Z,21.70
2022-09-04T19:27:28.415Z,26.60
2022-09-04T19:29:57.416Z,26.70
2022-09-04T19:33:20.478Z,26.80
2022-09-04T19:36:03.942Z,25.80
2022-09-04T19:45:57.206Z,25.00
2022-09-04T19:46:07.117Z,20.90
2022-09-04T19:46:13.431Z,23.20
2022-09-04T19:47:46.436Z,25.40
2022-09-04T19:53:22.615Z,23.50
2022-09-04T19:53:39.667Z,23.30
2022-09-04T19:56:51.803Z,25.20
2022-09-04T19:59:40.046Z,22.60
2022-09-04T20:02:22.916Z,22.60
2022-09-04T20:04:55.361Z,20.40
2022-09-04T20:07:41.510Z,21.60
2022-09-04T20:10:20.868Z,19.10
2022-09-04T20:13:07.064Z,20.50
2022-09-04T20:15:34.239Z,16.10
2022-09-04T20:18:11.986Z,15.60
2022-09-04T20:20:45.113Z,14.70
2022-09-04T20:23:37.635Z,14.40
2022-09-04T20:26:32.500Z,14.60
2022-09-04T20:29:11.957Z,12.80
2022-09-04T20:32:02.904Z,15.50
2022-09-04T20:34:50.679Z,13.80
2022-09-04T20:37:28.806Z,13.90
2022-09-04T20:40:04.477Z,11.10
2022-09-04T20:42:47.111Z,12.30
2022-09-04T20:49:27.250Z,9.70
2022-09-04T20:52:56.700Z,8.10
2022-09-04T20:53:06.685Z,7.90
2022-09-04T20:54:54.766Z,9.00
2022-09-04T21:02:53.305Z,9.40
2022-09-04T21:03:10.582Z,11.40
2022-09-04T21:04:05.923Z,9.20
2022-09-04T21:06:36.151Z,9.80
2022-09-04T21:09:55.172Z,14.10
2022-09-04T21:13:14.391Z,8.40
2022-09-04T21:16:17.420Z,8.20
2022-09-04T21:19:11.402Z,6.60
2022-09-04T21:22:21.120Z,7.40
2022-09-04T21:25:18.379Z,7.60
2022-09-04T21:28:18.378Z,8.10
2022-09-04T21:30:58.887Z,10.50
2022-09-04T21:33:42.509Z,8.70
2022-09-04T21:36:25.325Z,6.10
2022-09-04T21:39:22.848Z,8.10
2022-09-04T21:41:53.024Z,7.60
2022-09-04T21:44:59.264Z,8.50
2022-09-04T21:47:45.409Z,7.30
2022-09-04T21:50:43.910Z,8.90
2022-09-04T21:53:32.187Z,10.40
2022-09-04T22:02:31.790Z,8.60
2022-09-04T22:02:35.465Z,9.10
2022-09-04T22:02:36.870Z,9.30
2022-09-04T22:05:41.377Z,9.00
2022-09-04T22:13:32.114Z,7.00
2022-09-04T22:13:45.059Z,9.70
2022-09-04T22:14:59.744Z,6.60
2022-09-04T22:18:02.336Z,9.10
2022-09-04T22:20:53.023Z,5.40
2022-09-04T22:23:32.129Z,5.90
2022-09-04T22:26:26.866Z,6.60
2022-09-04T22:29:40.341Z,5.80
2022-09-04T22:32:20.413Z,6.10
2022-09-04T22:35:07.839Z,7.30
2022-09-04T22:37:58.839Z,5.20
2022-09-04T22:41:03.350Z,6.70
2022-09-04T22:43:46.742Z,5.20
2022-09-04T22:46:43.111Z,7.50
2022-09-04T22:49:17.649Z,6.70
2022-09-04T22:51:45.252Z,6.30
2022-09-04T22:54:23.986Z,6.80
2022-09-04T22:57:12.829Z,7.20
2022-09-04T23:00:06.312Z,6.90
2022-09-04T23:03:08.878Z,5.70
2022-09-04T23:06:42.000Z,5.20
2022-09-04T23:13:46.475Z,7.40
2022-09-04T23:14:02.831Z,7.00
2022-09-04T23:15:29.009Z,8.60
2022-09-04T23:24:43.786Z,7.90
2022-09-04T23:26:41.675Z,6.90
2022-09-04T23:26:42.064Z,7.80
2022-09-04T23:27:39.835Z,6.10
2022-09-04T23:30:25.746Z,8.00
2022-09-04T23:33:27.919Z,7.20
2022-09-04T23:36:10.805Z,8.70
2022-09-04T23:38:46.884Z,9.20
2022-09-04T23:41:26.000Z,8.00
2022-09-04T23:44:25.483Z,8.70
2022-09-04T23:46:56.180Z,8.00
2022-09-04T23:49:53.403Z,6.50
2022-09-04T23:53:02.336Z,10.60
2022-09-04T23:55:58.056Z,8.30
2022-09-04T23:59:12.760Z,9.30
